sensor_id;sensor_type;location;lat;lon;timestamp;temperature;humidity
48604;DHT22;32708;51.212;6.788;2023-12-28T00:00:34;10.50;99.90
48604;DHT22;32708;51.212;6.788;2023-12-28T00:03:00;10.60;99.90
48604;DHT22;32708;51.212;6.788;2023-12-28T00:05:26;10.70;99.90
48604;DHT22;32708;51.212;6.788;2023-12-28T00:07:52;10.70;99.90
48604;DHT22;32708;51.212;6.788;2023-12-28T00:10:27;10.70;99.90
48604;DHT22;32708;51.212;6.788;2023-12-28T00:12:54;10.70;99.90
48604;DHT22;32708;51.212;6.788;2023-12-28T00:15:20;10.70;99.90
48604;DHT22;32708;51.212;6.788;2023-12-28T00:17:47;10.70;99.90
48604;DHT22;32708;51.212;6.788;2023-12-28T00:20:13;10.80;99.90
48604;DHT22;32708;51.212;6.788;2023-12-28T00:22:39;10.70;99.90
48604;DHT22;32708;51.212;6.788;2023-12-28T00:25:06;10.80;99.90
48604;DHT22;32708;51.212;6.788;2023-12-28T00:27:32;10.70;99.90
48604;DHT22;32708;51.212;6.788;2023-12-28T00:30:01;10.70;99.90
48604;DHT22;32708;51.212;6.788;2023-12-28T00:32:28;10.70;99.90
48604;DHT22;32708;51.212;6.788;2023-12-28T00:34:54;10.70;99.90
48604;DHT22;32708;51.212;6.788;2023-12-28T00:37:20;10.60;99.90
48604;DHT22;32708;51.212;6.788;2023-12-28T00:39:46;10.70;99.90
48604;DHT22;32708;51.212;6.788;2023-12-28T00:42:13;10.60;99.90
48604;DHT22;32708;51.212;6.788;2023-12-28T00:44:39;10.80;99.90
48604;DHT22;32708;51.212;6.788;2023-12-28T00:47:05;10.60;99.90
48604;DHT22;32708;51.212;6.788;2023-12-28T00:49:32;10.50;99.90
48604;DHT22;32708;51.212;6.788;2023-12-28T00:51:59;10.60;99.90
48604;DHT22;32708;51.212;6.788;2023-12-28T00:54:25;10.60;99.90
48604;DHT22;32708;51.212;6.788;2023-12-28T00:56:51;10.60;99.90
48604;DHT22;32708;51.212;6.788;2023-12-28T00:59:17;10.70;99.90
48604;DHT22;32708;51.212;6.788;2023-12-28T01:01:45;10.50;99.90
48604;DHT22;32708;51.212;6.788;2023-12-28T01:04:11;10.50;99.90
48604;DHT22;32708;51.212;6.788;2023-12-28T01:06:37;10.40;99.90
48604;DHT22;32708;51.212;6.788;2023-12-28T01:09:03;10.40;99.90
48604;DHT22;32708;51.212;6.788;2023-12-28T01:11:31;10.50;99.90
48604;DHT22;32708;51.212;6.788;2023-12-28T01:13:58;10.40;99.90
48604;DHT22;32708;51.212;6.788;2023-12-28T01:16:25;10.50;99.90
48604;DHT22;32708;51.212;6.788;2023-12-28T01:18:51;10.50;99.90
48604;DHT22;32708;51.212;6.788;2023-12-28T01:21:17;10.50;99.90
48604;DHT22;32708;51.212;6.788;2023-12-28T01:23:44;10.50;99.90
48604;DHT22;32708;51.212;6.788;2023-12-28T01:26:14;10.50;99.90
48604;DHT22;32708;51.212;6.788;2023-12-28T01:28:40;10.50;99.90
48604;DHT22;32708;51.212;6.788;2023-12-28T01:31:09;10.50;99.90
48604;DHT22;32708;51.212;6.788;2023-12-28T01:33:35;10.50;99.90
48604;DHT22;32708;51.212;6.788;2023-12-28T01:36:02;10.50;99.90
48604;DHT22;32708;51.212;6.788;2023-12-28T01:38:28;10.70;99.90
48604;DHT22;32708;51.212;6.788;2023-12-28T01:40:55;10.60;99.90
48604;DHT22;32708;51.212;6.788;2023-12-28T01:43:21;10.60;99.90
48604;DHT22;32708;51.212;6.788;2023-12-28T01:45:47;10.60;99.90
48604;DHT22;32708;51.212;6.788;2023-12-28T01:48:15;10.70;99.90
48604;DHT22;32708;51.212;6.788;2023-12-28T01:50:42;10.70;99.90
48604;DHT22;32708;51.212;6.788;2023-12-28T01:53:08;10.80;99.90
48604;DHT22;32708;51.212;6.788;2023-12-28T01:55:36;10.70;99.90
48604;DHT22;32708;51.212;6.788;2023-12-28T01:58:02;10.70;99.90
48604;DHT22;32708;51.212;6.788;2023-12-28T02:00:29;10.60;99.90
48604;DHT22;32708;51.212;6.788;2023-12-28T02:02:59;10.60;99.90
48604;DHT22;32708;51.212;6.788;2023-12-28T02:05:27;10.70;99.90
48604;DHT22;32708;51.212;6.788;2023-12-28T02:07:54;10.70;99.90
48604;DHT22;32708;51.212;6.788;2023-12-28T02:10:22;10.80;99.90
48604;DHT22;32708;51.212;6.788;2023-12-28T02:12:48;10.60;99.90
48604;DHT22;32708;51.212;6.788;2023-12-28T02:15:16;10.50;99.90
48604;DHT22;32708;51.212;6.788;2023-12-28T02:17:47;10.60;99.90
48604;DHT22;32708;51.212;6.788;2023-12-28T02:20:29;10.70;99.90
48604;DHT22;32708;51.212;6.788;2023-12-28T02:22:57;10.70;99.90
48604;DHT22;32708;51.212;6.788;2023-12-28T02:25:23;10.80;99.90
48604;DHT22;32708;51.212;6.788;2023-12-28T02:27:50;10.80;99.90
48604;DHT22;32708;51.212;6.788;2023-12-28T02:30:19;10.80;99.90
48604;DHT22;32708;51.212;6.788;2023-12-28T02:33:17;10.80;99.90
48604;DHT22;32708;51.212;6.788;2023-12-28T02:36:10;10.80;99.90
48604;DHT22;32708;51.212;6.788;2023-12-28T02:38:40;10.80;99.90
48604;DHT22;32708;51.212;6.788;2023-12-28T02:41:10;10.80;99.90
48604;DHT22;32708;51.212;6.788;2023-12-28T02:43:37;10.60;99.90
48604;DHT22;32708;51.212;6.788;2023-12-28T02:46:04;10.70;99.90
48604;DHT22;32708;51.212;6.788;2023-12-28T02:48:30;10.70;99.90
48604;DHT22;32708;51.212;6.788;2023-12-28T02:50:57;10.70;99.90
48604;DHT22;32708;51.212;6.788;2023-12-28T02:53:23;10.70;99.90
48604;DHT22;32708;51.212;6.788;2023-12-28T02:55:49;10.60;99.90
48604;DHT22;32708;51.212;6.788;2023-12-28T02:58:16;10.90;99.90
48604;DHT22;32708;51.212;6.788;2023-12-28T03:00:42;10.90;99.90
48604;DHT22;32708;51.212;6.788;2023-12-28T03:03:08;10.80;99.90
48604;DHT22;32708;51.212;6.788;2023-12-28T03:05:34;10.70;99.90
48604;DHT22;32708;51.212;6.788;2023-12-28T03:08:00;10.90;99.90
48604;DHT22;32708;51.212;6.788;2023-12-28T03:10:27;11.00;99.90
48604;DHT22;32708;51.212;6.788;2023-12-28T03:12:53;10.90;99.90
48604;DHT22;32708;51.212;6.788;2023-12-28T03:15:19;10.90;99.90
48604;DHT22;32708;51.212;6.788;2023-12-28T03:17:46;10.80;99.90
48604;DHT22;32708;51.212;6.788;2023-12-28T03:20:12;10.80;99.90
48604;DHT22;32708;51.212;6.788;2023-12-28T03:22:38;11.00;99.90
48604;DHT22;32708;51.212;6.788;2023-12-28T03:25:04;11.20;99.90
48604;DHT22;32708;51.212;6.788;2023-12-28T03:27:32;11.00;99.90
48604;DHT22;32708;51.212;6.788;2023-12-28T03:29:58;11.00;99.90
48604;DHT22;32708;51.212;6.788;2023-12-28T03:32:24;11.10;99.90
48604;DHT22;32708;51.212;6.788;2023-12-28T03:34:50;11.10;99.90
48604;DHT22;32708;51.212;6.788;2023-12-28T03:37:16;11.10;99.90
48604;DHT22;32708;51.212;6.788;2023-12-28T03:39:43;11.00;99.90
48604;DHT22;32708;51.212;6.788;2023-12-28T03:42:09;11.00;99.90
48604;DHT22;32708;51.212;6.788;2023-12-28T03:44:36;11.00;99.90
48604;DHT22;32708;51.212;6.788;2023-12-28T03:47:02;11.00;99.90
48604;DHT22;32708;51.212;6.788;2023-12-28T03:49:29;11.00;99.90
48604;DHT22;32708;51.212;6.788;2023-12-28T03:51:55;11.00;99.90
48604;DHT22;32708;51.212;6.788;2023-12-28T03:54:21;11.10;99.90
48604;DHT22;32708;51.212;6.788;2023-12-28T03:56:47;11.10;99.90
48604;DHT22;32708;51.212;6.788;2023-12-28T03:59:14;11.10;99.90
48604;DHT22;32708;51.212;6.788;2023-12-28T04:01:44;11.10;99.90
48604;DHT22;32708;51.212;6.788;2023-12-28T04:04:10;11.10;99.90
48604;DHT22;32708;51.212;6.788;2023-12-28T04:06:37;11.10;99.90
48604;DHT22;32708;51.212;6.788;2023-12-28T04:09:04;11.10;99.90
48604;DHT22;32708;51.212;6.788;2023-12-28T04:11:30;11.10;99.90
48604;DHT22;32708;51.212;6.788;2023-12-28T04:13:57;11.00;99.90
48604;DHT22;32708;51.212;6.788;2023-12-28T04:16:23;11.00;99.90
48604;DHT22;32708;51.212;6.788;2023-12-28T04:18:49;11.00;99.90
48604;DHT22;32708;51.212;6.788;2023-12-28T04:21:16;11.00;99.90
48604;DHT22;32708;51.212;6.788;2023-12-28T04:23:42;11.10;99.90
48604;DHT22;32708;51.212;6.788;2023-12-28T04:26:08;11.00;99.90
48604;DHT22;32708;51.212;6.788;2023-12-28T04:28:35;11.10;99.90
48604;DHT22;32708;51.212;6.788;2023-12-28T04:31:06;11.10;99.90
48604;DHT22;32708;51.212;6.788;2023-12-28T04:33:34;11.00;99.90
48604;DHT22;32708;51.212;6.788;2023-12-28T04:36:01;11.10;99.90
48604;DHT22;32708;51.212;6.788;2023-12-28T04:38:31;11.00;99.90
48604;DHT22;32708;51.212;6.788;2023-12-28T04:40:59;11.00;99.90
48604;DHT22;32708;51.212;6.788;2023-12-28T04:43:26;11.00;99.90
48604;DHT22;32708;51.212;6.788;2023-12-28T04:45:52;11.10;97.80
48604;DHT22;32708;51.212;6.788;2023-12-28T04:48:19;11.20;96.80
48604;DHT22;32708;51.212;6.788;2023-12-28T04:50:47;11.20;93.20
48604;DHT22;32708;51.212;6.788;2023-12-28T04:53:14;11.30;91.10
48604;DHT22;32708;51.212;6.788;2023-12-28T04:55:41;11.20;88.10
48604;DHT22;32708;51.212;6.788;2023-12-28T04:58:08;11.20;86.10
48604;DHT22;32708;51.212;6.788;2023-12-28T05:00:35;11.10;94.20
48604;DHT22;32708;51.212;6.788;2023-12-28T05:03:02;11.30;91.90
48604;DHT22;32708;51.212;6.788;2023-12-28T05:05:29;11.10;90.60
48604;DHT22;32708;51.212;6.788;2023-12-28T05:07:55;11.00;95.40
48604;DHT22;32708;51.212;6.788;2023-12-28T05:10:22;11.10;92.30
48604;DHT22;32708;51.212;6.788;2023-12-28T05:12:48;11.20;86.60
48604;DHT22;32708;51.212;6.788;2023-12-28T05:15:16;11.20;88.10
48604;DHT22;32708;51.212;6.788;2023-12-28T05:17:44;11.20;80.20
48604;DHT22;32708;51.212;6.788;2023-12-28T05:20:10;11.10;89.70
48604;DHT22;32708;51.212;6.788;2023-12-28T05:22:36;11.10;82.30
48604;DHT22;32708;51.212;6.788;2023-12-28T05:25:02;11.20;78.70
48604;DHT22;32708;51.212;6.788;2023-12-28T05:27:29;11.20;77.50
48604;DHT22;32708;51.212;6.788;2023-12-28T05:29:55;11.10;72.50
48604;DHT22;32708;51.212;6.788;2023-12-28T05:32:21;11.20;64.90
48604;DHT22;32708;51.212;6.788;2023-12-28T05:34:48;11.10;81.60
48604;DHT22;32708;51.212;6.788;2023-12-28T05:37:15;11.20;74.30
48604;DHT22;32708;51.212;6.788;2023-12-28T05:39:42;11.40;63.90
48604;DHT22;32708;51.212;6.788;2023-12-28T05:42:08;11.20;61.80
48604;DHT22;32708;51.212;6.788;2023-12-28T05:44:34;11.20;61.30
48604;DHT22;32708;51.212;6.788;2023-12-28T05:47:00;11.20;63.80
48604;DHT22;32708;51.212;6.788;2023-12-28T05:49:26;11.10;71.40
48604;DHT22;32708;51.212;6.788;2023-12-28T05:51:54;11.10;68.70
48604;DHT22;32708;51.212;6.788;2023-12-28T05:54:20;11.00;73.90
48604;DHT22;32708;51.212;6.788;2023-12-28T05:56:48;11.00;76.50
48604;DHT22;32708;51.212;6.788;2023-12-28T05:59:14;11.20;66.70
48604;DHT22;32708;51.212;6.788;2023-12-28T06:01:43;11.00;74.70
48604;DHT22;32708;51.212;6.788;2023-12-28T06:04:10;11.10;69.00
48604;DHT22;32708;51.212;6.788;2023-12-28T06:06:37;11.00;67.60
48604;DHT22;32708;51.212;6.788;2023-12-28T06:09:03;11.00;67.10
48604;DHT22;32708;51.212;6.788;2023-12-28T06:11:30;11.00;73.60
48604;DHT22;32708;51.212;6.788;2023-12-28T06:13:56;11.00;67.20
48604;DHT22;32708;51.212;6.788;2023-12-28T06:16:23;11.00;72.50
48604;DHT22;32708;51.212;6.788;2023-12-28T06:18:51;11.00;71.70
48604;DHT22;32708;51.212;6.788;2023-12-28T06:21:17;11.00;69.20
48604;DHT22;32708;51.212;6.788;2023-12-28T06:23:43;11.00;69.20
48604;DHT22;32708;51.212;6.788;2023-12-28T06:26:09;11.00;68.90
48604;DHT22;32708;51.212;6.788;2023-12-28T06:28:35;11.00;72.80
48604;DHT22;32708;51.212;6.788;2023-12-28T06:31:02;11.10;63.20
48604;DHT22;32708;51.212;6.788;2023-12-28T06:33:30;11.00;69.10
48604;DHT22;32708;51.212;6.788;2023-12-28T06:35:56;11.30;77.50
48604;DHT22;32708;51.212;6.788;2023-12-28T06:38:25;11.00;75.60
48604;DHT22;32708;51.212;6.788;2023-12-28T06:40:52;11.00;68.20
48604;DHT22;32708;51.212;6.788;2023-12-28T06:43:18;11.00;68.10
48604;DHT22;32708;51.212;6.788;2023-12-28T06:45:44;11.00;67.80
48604;DHT22;32708;51.212;6.788;2023-12-28T06:48:10;11.10;60.90
48604;DHT22;32708;51.212;6.788;2023-12-28T06:50:37;11.30;60.10
48604;DHT22;32708;51.212;6.788;2023-12-28T06:53:03;11.10;56.20
48604;DHT22;32708;51.212;6.788;2023-12-28T06:55:29;11.20;53.50
48604;DHT22;32708;51.212;6.788;2023-12-28T06:57:55;11.10;44.70
48604;DHT22;32708;51.212;6.788;2023-12-28T07:00:21;11.10;45.90
48604;DHT22;32708;51.212;6.788;2023-12-28T07:02:48;11.50;43.10
48604;DHT22;32708;51.212;6.788;2023-12-28T07:05:14;11.10;41.70
48604;DHT22;32708;51.212;6.788;2023-12-28T07:07:40;11.20;53.40
48604;DHT22;32708;51.212;6.788;2023-12-28T07:10:06;11.10;47.50
48604;DHT22;32708;51.212;6.788;2023-12-28T07:12:33;11.20;42.80
48604;DHT22;32708;51.212;6.788;2023-12-28T07:15:02;11.30;30.50
48604;DHT22;32708;51.212;6.788;2023-12-28T07:17:29;11.10;44.50
48604;DHT22;32708;51.212;6.788;2023-12-28T07:19:56;11.10;46.80
48604;DHT22;32708;51.212;6.788;2023-12-28T07:22:22;11.20;34.30
48604;DHT22;32708;51.212;6.788;2023-12-28T07:24:49;11.30;25.80
48604;DHT22;32708;51.212;6.788;2023-12-28T07:27:17;11.40;18.20
48604;DHT22;32708;51.212;6.788;2023-12-28T07:29:43;11.30;17.00
48604;DHT22;32708;51.212;6.788;2023-12-28T07:32:09;11.30;17.90
48604;DHT22;32708;51.212;6.788;2023-12-28T07:34:36;11.20;16.50
48604;DHT22;32708;51.212;6.788;2023-12-28T07:37:02;11.20;24.70
48604;DHT22;32708;51.212;6.788;2023-12-28T07:39:28;11.30;15.70
48604;DHT22;32708;51.212;6.788;2023-12-28T07:41:55;11.30;16.40
48604;DHT22;32708;51.212;6.788;2023-12-28T07:44:22;11.40;22.80
48604;DHT22;32708;51.212;6.788;2023-12-28T07:46:49;11.30;24.70
48604;DHT22;32708;51.212;6.788;2023-12-28T07:49:15;11.30;18.00
48604;DHT22;32708;51.212;6.788;2023-12-28T07:51:41;11.20;22.20
48604;DHT22;32708;51.212;6.788;2023-12-28T07:54:08;11.20;24.30
48604;DHT22;32708;51.212;6.788;2023-12-28T07:56:34;11.20;30.30
48604;DHT22;32708;51.212;6.788;2023-12-28T07:59:01;11.10;31.30
48604;DHT22;32708;51.212;6.788;2023-12-28T08:01:30;11.20;28.70
48604;DHT22;32708;51.212;6.788;2023-12-28T08:03:58;11.10;31.60
48604;DHT22;32708;51.212;6.788;2023-12-28T08:06:25;11.10;31.00
48604;DHT22;32708;51.212;6.788;2023-12-28T08:08:51;11.20;24.20
48604;DHT22;32708;51.212;6.788;2023-12-28T08:11:19;11.30;12.30
48604;DHT22;32708;51.212;6.788;2023-12-28T08:13:45;11.10;25.80
48604;DHT22;32708;51.212;6.788;2023-12-28T08:16:12;11.30;21.70
48604;DHT22;32708;51.212;6.788;2023-12-28T08:18:38;11.20;11.30
48604;DHT22;32708;51.212;6.788;2023-12-28T08:21:04;11.10;21.80
48604;DHT22;32708;51.212;6.788;2023-12-28T08:23:31;11.20;19.20
48604;DHT22;32708;51.212;6.788;2023-12-28T08:25:57;11.30;13.30
48604;DHT22;32708;51.212;6.788;2023-12-28T08:28:23;11.10;24.00
48604;DHT22;32708;51.212;6.788;2023-12-28T08:30:52;11.20;15.20
48604;DHT22;32708;51.212;6.788;2023-12-28T08:33:18;11.20;20.10
48604;DHT22;32708;51.212;6.788;2023-12-28T08:35:45;11.20;16.60
48604;DHT22;32708;51.212;6.788;2023-12-28T08:38:11;11.40;18.20
48604;DHT22;32708;51.212;6.788;2023-12-28T08:40:37;11.20;12.60
48604;DHT22;32708;51.212;6.788;2023-12-28T08:43:04;11.20;11.00
48604;DHT22;32708;51.212;6.788;2023-12-28T08:45:33;11.30;9.70
48604;DHT22;32708;51.212;6.788;2023-12-28T08:48:02;11.30;9.00
48604;DHT22;32708;51.212;6.788;2023-12-28T08:50:30;11.40;1.00
48604;DHT22;32708;51.212;6.788;2023-12-28T08:52:58;11.40;2.80
48604;DHT22;32708;51.212;6.788;2023-12-28T08:55:24;11.40;1.00
48604;DHT22;32708;51.212;6.788;2023-12-28T08:57:50;11.30;5.70
48604;DHT22;32708;51.212;6.788;2023-12-28T09:00:16;11.30;5.00
48604;DHT22;32708;51.212;6.788;2023-12-28T09:02:43;11.30;8.30
48604;DHT22;32708;51.212;6.788;2023-12-28T09:05:10;11.30;2.50
48604;DHT22;32708;51.212;6.788;2023-12-28T09:07:36;11.30;1.00
48604;DHT22;32708;51.212;6.788;2023-12-28T09:10:10;11.50;1.00
48604;DHT22;32708;51.212;6.788;2023-12-28T09:12:37;11.40;1.00
48604;DHT22;32708;51.212;6.788;2023-12-28T09:15:05;11.60;10.60
48604;DHT22;32708;51.212;6.788;2023-12-28T09:17:31;11.50;1.00
48604;DHT22;32708;51.212;6.788;2023-12-28T09:19:58;11.40;1.00
48604;DHT22;32708;51.212;6.788;2023-12-28T09:22:25;11.50;1.00
48604;DHT22;32708;51.212;6.788;2023-12-28T09:24:51;11.50;1.00
48604;DHT22;32708;51.212;6.788;2023-12-28T09:27:17;11.50;1.00
48604;DHT22;32708;51.212;6.788;2023-12-28T09:29:44;11.60;1.00
48604;DHT22;32708;51.212;6.788;2023-12-28T09:32:10;11.60;1.00
48604;DHT22;32708;51.212;6.788;2023-12-28T09:34:36;11.70;1.00
48604;DHT22;32708;51.212;6.788;2023-12-28T09:37:02;11.60;1.00
48604;DHT22;32708;51.212;6.788;2023-12-28T09:39:32;11.80;1.00
48604;DHT22;32708;51.212;6.788;2023-12-28T09:42:19;11.90;1.00
48604;DHT22;32708;51.212;6.788;2023-12-28T09:44:52;11.90;1.00
48604;DHT22;32708;51.212;6.788;2023-12-28T09:47:21;11.90;1.00
48604;DHT22;32708;51.212;6.788;2023-12-28T09:49:48;12.00;1.00
48604;DHT22;32708;51.212;6.788;2023-12-28T09:52:17;12.10;1.00
48604;DHT22;32708;51.212;6.788;2023-12-28T09:54:43;12.20;99.90
48604;DHT22;32708;51.212;6.788;2023-12-28T09:57:20;12.20;99.90
48604;DHT22;32708;51.212;6.788;2023-12-28T09:59:46;12.10;99.90
48604;DHT22;32708;51.212;6.788;2023-12-28T10:02:15;12.20;99.90
48604;DHT22;32708;51.212;6.788;2023-12-28T10:04:42;12.20;99.90
48604;DHT22;32708;51.212;6.788;2023-12-28T10:07:11;12.30;99.90
48604;DHT22;32708;51.212;6.788;2023-12-28T10:09:37;12.10;99.90
48604;DHT22;32708;51.212;6.788;2023-12-28T10:12:03;12.00;99.90
48604;DHT22;32708;51.212;6.788;2023-12-28T10:14:30;12.00;99.90
48604;DHT22;32708;51.212;6.788;2023-12-28T10:16:57;12.20;99.90
48604;DHT22;32708;51.212;6.788;2023-12-28T10:19:23;12.10;99.90
48604;DHT22;32708;51.212;6.788;2023-12-28T10:21:49;12.20;99.90
48604;DHT22;32708;51.212;6.788;2023-12-28T10:24:16;12.30;99.90
48604;DHT22;32708;51.212;6.788;2023-12-28T10:26:42;12.30;99.90
48604;DHT22;32708;51.212;6.788;2023-12-28T10:29:11;12.40;99.90
48604;DHT22;32708;51.212;6.788;2023-12-28T10:31:42;12.30;99.90
48604;DHT22;32708;51.212;6.788;2023-12-28T10:34:09;12.40;99.90
48604;DHT22;32708;51.212;6.788;2023-12-28T10:36:37;12.40;99.90
48604;DHT22;32708;51.212;6.788;2023-12-28T10:39:10;12.50;99.90
48604;DHT22;32708;51.212;6.788;2023-12-28T10:41:44;12.40;99.90
48604;DHT22;32708;51.212;6.788;2023-12-28T10:44:20;12.40;99.90
48604;DHT22;32708;51.212;6.788;2023-12-28T10:47:02;12.40;99.90
48604;DHT22;32708;51.212;6.788;2023-12-28T10:49:43;12.40;99.90
48604;DHT22;32708;51.212;6.788;2023-12-28T10:52:17;12.30;99.90
48604;DHT22;32708;51.212;6.788;2023-12-28T10:58:10;12.40;99.90
48604;DHT22;32708;51.212;6.788;2023-12-28T11:01:05;12.20;99.90
48604;DHT22;32708;51.212;6.788;2023-12-28T11:03:37;12.40;99.90
48604;DHT22;32708;51.212;6.788;2023-12-28T11:06:12;12.30;87.30
48604;DHT22;32708;51.212;6.788;2023-12-28T11:08:46;12.40;51.40
48604;DHT22;32708;51.212;6.788;2023-12-28T11:11:19;12.40;99.90
48604;DHT22;32708;51.212;6.788;2023-12-28T11:13:48;12.50;87.90
48604;DHT22;32708;51.212;6.788;2023-12-28T11:16:18;12.50;1.00
48604;DHT22;32708;51.212;6.788;2023-12-28T11:18:47;12.60;1.00
48604;DHT22;32708;51.212;6.788;2023-12-28T11:21:15;12.50;1.00
48604;DHT22;32708;51.212;6.788;2023-12-28T11:23:43;12.50;1.00
48604;DHT22;32708;51.212;6.788;2023-12-28T11:26:21;12.40;1.00
48604;DHT22;32708;51.212;6.788;2023-12-28T11:28:48;12.40;99.90
48604;DHT22;32708;51.212;6.788;2023-12-28T11:31:17;12.40;99.90
48604;DHT22;32708;51.212;6.788;2023-12-28T11:33:50;12.40;99.90
48604;DHT22;32708;51.212;6.788;2023-12-28T11:36:23;12.30;99.90
48604;DHT22;32708;51.212;6.788;2023-12-28T11:39:02;12.30;1.00
48604;DHT22;32708;51.212;6.788;2023-12-28T11:41:35;12.50;99.90
48604;DHT22;32708;51.212;6.788;2023-12-28T11:44:03;12.40;99.90
48604;DHT22;32708;51.212;6.788;2023-12-28T11:46:35;12.40;99.90
48604;DHT22;32708;51.212;6.788;2023-12-28T11:49:06;12.50;99.90
48604;DHT22;32708;51.212;6.788;2023-12-28T11:51:38;12.50;1.00
48604;DHT22;32708;51.212;6.788;2023-12-28T11:54:12;12.60;8.30
48604;DHT22;32708;51.212;6.788;2023-12-28T11:56:38;12.60;1.00
48604;DHT22;32708;51.212;6.788;2023-12-28T11:59:05;12.70;1.00
48604;DHT22;32708;51.212;6.788;2023-12-28T12:01:33;12.90;99.90
48604;DHT22;32708;51.212;6.788;2023-12-28T12:04:00;12.70;99.90
48604;DHT22;32708;51.212;6.788;2023-12-28T12:06:26;12.70;99.90
48604;DHT22;32708;51.212;6.788;2023-12-28T12:08:55;12.70;99.90
48604;DHT22;32708;51.212;6.788;2023-12-28T12:11:23;12.70;99.90
48604;DHT22;32708;51.212;6.788;2023-12-28T12:14:13;12.80;99.90
48604;DHT22;32708;51.212;6.788;2023-12-28T12:16:40;12.80;99.90
48604;DHT22;32708;51.212;6.788;2023-12-28T12:19:07;12.80;99.90
48604;DHT22;32708;51.212;6.788;2023-12-28T12:21:34;12.80;99.90
48604;DHT22;32708;51.212;6.788;2023-12-28T12:24:01;12.60;99.90
48604;DHT22;32708;51.212;6.788;2023-12-28T12:26:29;12.70;99.90
48604;DHT22;32708;51.212;6.788;2023-12-28T12:28:57;12.80;99.90
48604;DHT22;32708;51.212;6.788;2023-12-28T13:09:25;12.80;83.30
48604;DHT22;32708;51.212;6.788;2023-12-28T13:13:25;12.70;99.90
48604;DHT22;32708;51.212;6.788;2023-12-28T13:46:09;12.70;1.00
48604;DHT22;32708;51.212;6.788;2023-12-28T13:56:11;12.40;99.90
48604;DHT22;32708;51.212;6.788;2023-12-28T14:05:37;12.50;99.90
48604;DHT22;32708;51.212;6.788;2023-12-28T14:08:03;12.30;99.90
48604;DHT22;32708;51.212;6.788;2023-12-28T14:10:53;12.40;1.00
48604;DHT22;32708;51.212;6.788;2023-12-28T14:14:13;12.30;99.90
48604;DHT22;32708;51.212;6.788;2023-12-28T14:17:08;12.40;99.90
48604;DHT22;32708;51.212;6.788;2023-12-28T14:19:56;12.40;99.90
48604;DHT22;32708;51.212;6.788;2023-12-28T14:23:04;12.40;71.90
48604;DHT22;32708;51.212;6.788;2023-12-28T14:25:42;12.40;1.00
48604;DHT22;32708;51.212;6.788;2023-12-28T14:28:11;12.50;99.90
48604;DHT22;32708;51.212;6.788;2023-12-28T14:30:53;12.40;1.00
48604;DHT22;32708;51.212;6.788;2023-12-28T14:33:20;12.40;1.00
48604;DHT22;32708;51.212;6.788;2023-12-28T14:35:46;12.30;34.70
48604;DHT22;32708;51.212;6.788;2023-12-28T14:38:14;12.40;99.90
48604;DHT22;32708;51.212;6.788;2023-12-28T14:40:40;12.30;64.00
48604;DHT22;32708;51.212;6.788;2023-12-28T14:43:07;12.20;99.90
48604;DHT22;32708;51.212;6.788;2023-12-28T14:45:33;12.20;99.90
48604;DHT22;32708;51.212;6.788;2023-12-28T14:47:59;12.20;1.00
48604;DHT22;32708;51.212;6.788;2023-12-28T14:50:25;12.30;1.00
48604;DHT22;32708;51.212;6.788;2023-12-28T14:52:51;12.20;1.00
48604;DHT22;32708;51.212;6.788;2023-12-28T14:55:18;12.20;70.00
48604;DHT22;32708;51.212;6.788;2023-12-28T14:57:44;12.20;99.90
48604;DHT22;32708;51.212;6.788;2023-12-28T15:00:11;12.10;99.90
48604;DHT22;32708;51.212;6.788;2023-12-28T15:02:37;12.10;99.90
48604;DHT22;32708;51.212;6.788;2023-12-28T15:05:04;12.00;99.90
48604;DHT22;32708;51.212;6.788;2023-12-28T15:07:31;12.00;99.90
48604;DHT22;32708;51.212;6.788;2023-12-28T15:09:57;12.00;1.00
48604;DHT22;32708;51.212;6.788;2023-12-28T15:12:24;12.00;31.90
48604;DHT22;32708;51.212;6.788;2023-12-28T15:14:50;12.00;99.90
48604;DHT22;32708;51.212;6.788;2023-12-28T15:17:17;12.00;99.90
48604;DHT22;32708;51.212;6.788;2023-12-28T15:19:44;11.90;99.90
48604;DHT22;32708;51.212;6.788;2023-12-28T15:22:10;12.00;99.90
48604;DHT22;32708;51.212;6.788;2023-12-28T15:24:37;12.00;99.40
48604;DHT22;32708;51.212;6.788;2023-12-28T15:27:04;11.90;1.00
48604;DHT22;32708;51.212;6.788;2023-12-28T15:29:33;11.90;1.00
48604;DHT22;32708;51.212;6.788;2023-12-28T15:31:59;11.80;1.00
48604;DHT22;32708;51.212;6.788;2023-12-28T15:34:26;12.00;1.00
48604;DHT22;32708;51.212;6.788;2023-12-28T15:36:52;11.70;99.90
48604;DHT22;32708;51.212;6.788;2023-12-28T15:39:18;11.70;99.90
48604;DHT22;32708;51.212;6.788;2023-12-28T15:41:45;11.60;99.90
48604;DHT22;32708;51.212;6.788;2023-12-28T15:44:12;11.60;99.90
48604;DHT22;32708;51.212;6.788;2023-12-28T15:46:40;11.70;99.90
48604;DHT22;32708;51.212;6.788;2023-12-28T15:49:06;11.70;99.90
48604;DHT22;32708;51.212;6.788;2023-12-28T15:51:33;11.70;99.90
48604;DHT22;32708;51.212;6.788;2023-12-28T15:53:59;11.70;99.90
48604;DHT22;32708;51.212;6.788;2023-12-28T15:56:25;11.70;99.90
48604;DHT22;32708;51.212;6.788;2023-12-28T15:58:51;11.60;99.90
48604;DHT22;32708;51.212;6.788;2023-12-28T16:01:17;11.70;99.90
48604;DHT22;32708;51.212;6.788;2023-12-28T16:03:44;11.60;99.90
48604;DHT22;32708;51.212;6.788;2023-12-28T16:06:12;11.50;98.90
48604;DHT22;32708;51.212;6.788;2023-12-28T16:08:38;11.50;99.90
48604;DHT22;32708;51.212;6.788;2023-12-28T16:11:05;11.60;1.00
48604;DHT22;32708;51.212;6.788;2023-12-28T16:13:35;11.60;99.90
48604;DHT22;32708;51.212;6.788;2023-12-28T16:16:03;11.40;99.90
48604;DHT22;32708;51.212;6.788;2023-12-28T16:18:30;11.50;99.90
48604;DHT22;32708;51.212;6.788;2023-12-28T16:20:57;11.50;99.90
48604;DHT22;32708;51.212;6.788;2023-12-28T16:23:24;11.60;99.90
48604;DHT22;32708;51.212;6.788;2023-12-28T16:25:50;11.60;99.90
48604;DHT22;32708;51.212;6.788;2023-12-28T16:28:16;11.80;99.90
48604;DHT22;32708;51.212;6.788;2023-12-28T16:30:43;11.60;99.90
48604;DHT22;32708;51.212;6.788;2023-12-28T16:33:09;11.60;99.90
48604;DHT22;32708;51.212;6.788;2023-12-28T16:35:35;11.60;99.90
48604;DHT22;32708;51.212;6.788;2023-12-28T16:38:02;11.40;99.90
48604;DHT22;32708;51.212;6.788;2023-12-28T16:40:28;11.50;99.90
48604;DHT22;32708;51.212;6.788;2023-12-28T16:42:55;11.40;99.90
48604;DHT22;32708;51.212;6.788;2023-12-28T16:45:21;11.70;99.90
48604;DHT22;32708;51.212;6.788;2023-12-28T16:47:51;11.50;99.90
48604;DHT22;32708;51.212;6.788;2023-12-28T16:50:17;11.50;99.90
48604;DHT22;32708;51.212;6.788;2023-12-28T16:52:45;11.50;99.90
48604;DHT22;32708;51.212;6.788;2023-12-28T16:55:11;11.50;99.90
48604;DHT22;32708;51.212;6.788;2023-12-28T17:03:00;11.40;99.90
48604;DHT22;32708;51.212;6.788;2023-12-28T17:05:27;11.40;99.90
48604;DHT22;32708;51.212;6.788;2023-12-28T17:07:53;11.50;99.90
48604;DHT22;32708;51.212;6.788;2023-12-28T17:10:21;11.50;99.90